createdAt,value
2018-06-23T00:02:30.350Z,12.50
2018-06-23T00:05:10.851Z,12.50
2018-06-23T00:07:50.557Z,12.60
2018-06-23T00:10:30.648Z,12.60
2018-06-23T00:13:10.377Z,12.60
2018-06-23T00:15:50.075Z,12.60
2018-06-23T00:18:27.458Z,12.50
2018-06-23T00:21:06.256Z,12.50
2018-06-23T00:23:43.760Z,12.50
2018-06-23T00:26:26.219Z,12.50
2018-06-23T00:29:04.293Z,12.50
2018-06-23T00:31:41.389Z,12.60
2018-06-23T00:34:21.350Z,12.50
2018-06-23T00:36:58.171Z,12.50
2018-06-23T00:39:35.933Z,12.50
2018-06-23T00:42:14.255Z,12.50
2018-06-23T00:44:52.300Z,12.40
2018-06-23T00:47:31.219Z,12.40
2018-06-23T00:50:08.820Z,12.40
2018-06-23T00:52:48.899Z,12.40
2018-06-23T00:55:26.864Z,12.40
2018-06-23T00:58:04.661Z,12.40
2018-06-23T01:00:41.298Z,12.40
2018-06-23T01:03:21.529Z,12.40
2018-06-23T01:05:59.181Z,12.40
2018-06-23T01:08:40.300Z,12.40
2018-06-23T01:11:20.273Z,12.40
2018-06-23T01:13:52.525Z,12.40
2018-06-23T01:16:29.528Z,12.40
2018-06-23T01:19:09.380Z,12.40
2018-06-23T01:21:49.552Z,12.40
2018-06-23T01:24:29.803Z,12.40
2018-06-23T01:27:06.691Z,12.30
2018-06-23T01:29:47.040Z,12.40
2018-06-23T01:32:27.091Z,12.40
2018-06-23T01:35:05.214Z,12.50
2018-06-23T01:37:43.547Z,12.50
2018-06-23T01:40:19.023Z,12.50
2018-06-23T01:42:59.139Z,12.50
2018-06-23T01:45:38.886Z,12.50
2018-06-23T01:48:17.389Z,12.40
2018-06-23T01:50:57.210Z,12.40
2018-06-23T01:53:34.789Z,12.40
2018-06-23T01:56:14.871Z,12.40
2018-06-23T01:58:54.838Z,12.30
2018-06-23T02:01:34.748Z,12.30
2018-06-23T02:04:10.540Z,12.10
2018-06-23T02:06:50.781Z,12.00
2018-06-23T02:09:30.775Z,12.00
2018-06-23T02:12:11.059Z,12.00
2018-06-23T02:14:56.071Z,12.00
2018-06-23T02:17:41.130Z,11.90
2018-06-23T02:20:26.318Z,11.90
2018-06-23T02:24:13.412Z,11.80
2018-06-23T02:26:58.220Z,11.80
2018-06-23T02:29:43.181Z,11.80
2018-06-23T02:32:27.951Z,11.80
2018-06-23T02:35:09.241Z,11.70
2018-06-23T02:37:49.288Z,11.70
2018-06-23T02:40:29.137Z,11.70
2018-06-23T02:43:08.892Z,11.70
2018-06-23T02:45:49.142Z,11.70
2018-06-23T02:48:29.193Z,11.80
2018-06-23T02:51:09.169Z,11.80
2018-06-23T02:53:49.443Z,11.80
2018-06-23T02:56:29.268Z,11.80
2018-06-23T02:59:04.982Z,11.80
2018-06-23T03:01:45.086Z,11.80
2018-06-23T03:04:19.146Z,11.80
2018-06-23T03:06:54.758Z,11.80
2018-06-23T03:09:27.568Z,11.80
2018-06-23T03:12:05.887Z,11.80
2018-06-23T03:17:22.116Z,11.80
2018-06-23T03:19:59.317Z,11.80
2018-06-23T03:22:39.622Z,11.80
2018-06-23T03:25:18.447Z,11.90
2018-06-23T03:27:55.892Z,12.00
2018-06-23T03:30:36.025Z,12.00
2018-06-23T03:33:13.271Z,12.00
2018-06-23T03:35:48.666Z,12.10
2018-06-23T03:38:25.924Z,12.10
2018-06-23T03:41:02.071Z,12.10
2018-06-23T03:43:34.104Z,12.20
2018-06-23T03:46:10.192Z,12.30
2018-06-23T03:48:48.551Z,12.40
2018-06-23T03:51:26.816Z,12.50
2018-06-23T03:54:03.175Z,12.50
2018-06-23T03:56:40.587Z,12.50
2018-06-23T03:59:12.237Z,12.60
2018-06-23T04:01:42.938Z,12.60
2018-06-23T04:04:22.942Z,12.60
2018-06-23T04:07:03.124Z,12.60
2018-06-23T04:09:43.353Z,12.60
2018-06-23T04:12:23.404Z,12.70
2018-06-23T04:15:03.266Z,12.80
2018-06-23T04:17:43.165Z,12.80
2018-06-23T04:20:23.641Z,12.80
2018-06-23T04:23:04.057Z,12.80
2018-06-23T04:25:44.262Z,12.90
2018-06-23T04:28:21.581Z,12.90
2018-06-23T04:31:00.135Z,13.00
2018-06-23T04:33:39.896Z,13.00
2018-06-23T04:36:19.492Z,13.10
2018-06-23T04:38:52.332Z,13.20
2018-06-23T04:41:27.502Z,13.30
2018-06-23T04:44:04.077Z,13.30
2018-06-23T04:46:36.037Z,13.40
2018-06-23T04:49:12.872Z,13.50
2018-06-23T04:51:49.683Z,13.50
2018-06-23T04:54:26.909Z,13.50
2018-06-23T04:57:07.135Z,13.50
2018-06-23T04:59:44.020Z,13.50
2018-06-23T05:02:20.995Z,13.60
2018-06-23T05:04:57.954Z,13.70
2018-06-23T05:07:35.420Z,13.90
2018-06-23T05:10:15.647Z,14.10
2018-06-23T05:12:51.886Z,14.20
2018-06-23T05:15:29.035Z,14.20
2018-06-23T05:18:08.523Z,14.10
2018-06-23T05:20:48.280Z,14.10
2018-06-23T05:23:23.887Z,14.10
2018-06-23T05:25:55.940Z,14.10
2018-06-23T05:28:34.239Z,14.00
2018-06-23T05:31:14.495Z,14.00
2018-06-23T05:33:54.795Z,14.00
2018-06-23T05:36:30.714Z,13.90
2018-06-23T05:39:09.385Z,13.90
2018-06-23T05:41:45.666Z,13.80
2018-06-23T05:44:26.369Z,13.80
2018-06-23T05:47:06.539Z,13.70
2018-06-23T05:49:42.928Z,13.80
2018-06-23T05:52:23.337Z,13.80
2018-06-23T05:55:03.516Z,13.70
2018-06-23T05:57:44.057Z,13.80
2018-06-23T06:00:15.857Z,13.70
2018-06-23T06:02:47.547Z,13.90
2018-06-23T06:05:27.913Z,14.00
2018-06-23T06:08:07.811Z,14.40
2018-06-23T06:10:47.805Z,14.60
2018-06-23T06:13:26.184Z,14.60
2018-06-23T06:16:03.978Z,14.70
2018-06-23T06:18:44.033Z,14.70
2018-06-23T06:21:24.500Z,14.90
2018-06-23T06:24:05.041Z,15.00
2018-06-23T06:26:40.644Z,14.90
2018-06-23T06:29:20.631Z,14.90
2018-06-23T06:31:52.511Z,14.90
2018-06-23T06:34:25.971Z,14.90
2018-06-23T06:37:01.315Z,14.90
2018-06-23T06:39:37.124Z,15.20
2018-06-23T06:42:17.491Z,15.70
2018-06-23T06:44:55.697Z,16.10
2018-06-23T06:47:35.399Z,16.30
2018-06-23T06:50:12.715Z,16.40
2018-06-23T06:52:52.495Z,16.20
2018-06-23T06:55:29.982Z,16.10
2018-06-23T06:58:09.874Z,16.00
2018-06-23T07:00:50.006Z,16.20
2018-06-23T07:03:29.946Z,16.20
2018-06-23T07:06:07.937Z,16.40
2018-06-23T07:08:49.541Z,16.40
2018-06-23T07:11:29.438Z,16.40
2018-06-23T07:14:08.360Z,16.70
2018-06-23T07:16:48.074Z,17.00
2018-06-23T07:19:24.022Z,17.20
2018-06-23T07:22:04.223Z,17.30
2018-06-23T07:24:42.781Z,17.20
2018-06-23T07:27:14.702Z,17.20
2018-06-23T07:29:45.980Z,17.40
2018-06-23T07:32:17.101Z,17.50
2018-06-23T07:34:58.384Z,17.20
2018-06-23T07:37:38.291Z,17.10
2018-06-23T07:40:17.927Z,17.20
2018-06-23T07:42:57.710Z,17.00
2018-06-23T07:45:38.156Z,17.10
2018-06-23T07:48:18.638Z,17.30
2018-06-23T07:50:50.796Z,17.60
2018-06-23T07:53:25.826Z,17.90
2018-06-23T07:56:06.528Z,18.20
2018-06-23T07:58:46.624Z,18.50
2018-06-23T08:01:18.917Z,18.60
2018-06-23T08:03:50.944Z,18.70
2018-06-23T08:06:32.215Z,18.90
2018-06-23T08:09:12.328Z,19.00
2018-06-23T08:11:52.864Z,19.00
2018-06-23T08:14:31.730Z,18.80
2018-06-23T08:17:11.809Z,18.70
2018-06-23T08:19:45.040Z,18.30
2018-06-23T08:22:26.690Z,18.00
2018-06-23T08:25:06.817Z,18.00
2018-06-23T08:27:44.471Z,18.20
2018-06-23T08:30:41.146Z,18.60
2018-06-23T08:33:26.130Z,18.80
2018-06-23T08:36:02.839Z,18.90
2018-06-23T08:38:43.533Z,19.00
2018-06-23T08:41:23.473Z,19.00
2018-06-23T08:44:03.288Z,18.70
2018-06-23T08:46:42.735Z,18.70
2018-06-23T08:49:21.545Z,19.00
2018-06-23T08:52:01.538Z,20.10
2018-06-23T08:54:41.384Z,21.30
2018-06-23T08:57:21.419Z,23.10
2018-06-23T09:00:01.707Z,25.50
2018-06-23T09:02:40.978Z,25.70
2018-06-23T09:05:19.494Z,24.80
2018-06-23T09:07:59.799Z,23.30
2018-06-23T09:10:40.494Z,24.80
2018-06-23T09:13:23.727Z,27.40
2018-06-23T09:16:04.508Z,30.10
2018-06-23T09:18:46.596Z,32.60
2018-06-23T09:21:22.214Z,34.60
2018-06-23T09:24:02.225Z,34.40
2018-06-23T09:26:42.288Z,34.00
2018-06-23T09:29:22.977Z,33.90
2018-06-23T09:32:02.780Z,35.00
2018-06-23T09:34:39.938Z,36.40
2018-06-23T09:37:17.021Z,36.90
2018-06-23T09:39:58.405Z,37.30
2018-06-23T09:42:38.332Z,37.80
2018-06-23T09:45:19.230Z,37.20
2018-06-23T09:47:58.997Z,34.90
2018-06-23T09:50:39.066Z,31.40
2018-06-23T09:53:17.334Z,28.70
2018-06-23T09:55:57.848Z,26.30
2018-06-23T09:58:38.851Z,25.90
2018-06-23T10:01:20.000Z,24.80
2018-06-23T10:03:56.352Z,25.90
2018-06-23T10:06:37.289Z,29.40
2018-06-23T10:09:17.896Z,32.70
2018-06-23T10:11:57.976Z,31.90
2018-06-23T10:14:38.250Z,30.10
2018-06-23T10:17:18.590Z,27.60
2018-06-23T10:19:58.819Z,28.20
2018-06-23T10:22:38.827Z,29.10
2018-06-23T10:25:12.311Z,28.90
2018-06-23T10:27:53.200Z,29.30
2018-06-23T10:30:25.563Z,28.80
2018-06-23T10:33:05.777Z,28.30
2018-06-23T10:35:45.866Z,27.50
2018-06-23T10:38:27.588Z,25.70
2018-06-23T10:41:07.708Z,24.50
2018-06-23T10:43:47.842Z,26.50
2018-06-23T10:46:28.064Z,26.60
2018-06-23T10:49:08.412Z,26.20
2018-06-23T10:51:48.876Z,25.30
2018-06-23T10:54:28.532Z,24.10
2018-06-23T10:57:08.824Z,23.00
2018-06-23T10:59:48.720Z,22.20
2018-06-23T11:02:28.787Z,21.60
2018-06-23T11:05:09.085Z,21.30
2018-06-23T11:07:49.544Z,21.40
2018-06-23T11:10:29.391Z,22.20
2018-06-23T11:13:09.255Z,24.70
2018-06-23T11:15:47.274Z,25.70
2018-06-23T11:18:24.124Z,25.40
2018-06-23T11:21:04.331Z,24.60
2018-06-23T11:23:38.178Z,24.40
2018-06-23T11:26:13.578Z,24.60
2018-06-23T11:29:01.617Z,25.10
2018-06-23T11:31:42.152Z,25.80
2018-06-23T11:34:21.160Z,25.90
2018-06-23T11:37:01.292Z,24.80
2018-06-23T11:39:39.555Z,23.80
2018-06-23T11:42:15.733Z,22.80
2018-06-23T11:44:52.437Z,22.70
2018-06-23T11:47:32.588Z,23.50
2018-06-23T11:50:13.003Z,24.00
2018-06-23T11:52:53.027Z,23.60
2018-06-23T11:55:34.479Z,23.20
2018-06-23T11:58:14.270Z,23.20
2018-06-23T12:00:46.839Z,23.10
2018-06-23T12:03:18.705Z,22.90
2018-06-23T12:06:00.022Z,22.50
2018-06-23T12:08:40.068Z,22.20
2018-06-23T12:11:20.407Z,22.10
2018-06-23T12:14:00.519Z,22.10
2018-06-23T12:16:40.907Z,21.90
2018-06-23T12:19:21.241Z,21.50
2018-06-23T12:22:01.428Z,21.30
2018-06-23T12:24:42.329Z,21.00
2018-06-23T12:27:22.755Z,20.60
2018-06-23T12:30:02.773Z,20.60
2018-06-23T12:32:43.285Z,20.80
2018-06-23T12:35:24.330Z,21.00
2018-06-23T12:38:04.473Z,21.10
2018-06-23T12:40:42.169Z,20.90
2018-06-23T12:43:22.379Z,20.80
2018-06-23T12:46:03.186Z,20.60
2018-06-23T12:48:40.788Z,20.60
2018-06-23T12:51:18.599Z,20.60
2018-06-23T12:53:59.216Z,20.60
2018-06-23T12:56:35.437Z,20.70
2018-06-23T12:59:10.931Z,20.70
2018-06-23T13:01:48.403Z,20.50
2018-06-23T13:04:24.503Z,20.30
2018-06-23T13:07:00.241Z,20.30
2018-06-23T13:09:37.151Z,20.40
2018-06-23T13:12:17.898Z,20.40
2018-06-23T13:17:33.478Z,20.70
2018-06-23T13:20:10.424Z,21.00
2018-06-23T13:22:51.511Z,21.30
2018-06-23T13:25:31.349Z,21.50
2018-06-23T13:28:11.347Z,21.60
2018-06-23T13:30:52.069Z,21.40
2018-06-23T13:33:32.442Z,21.60
2018-06-23T13:36:12.642Z,21.70
2018-06-23T13:38:52.911Z,21.90
2018-06-23T13:41:32.530Z,21.80
2018-06-23T13:44:12.694Z,21.80
2018-06-23T13:46:53.052Z,21.70
2018-06-23T13:49:33.308Z,21.90
2018-06-23T13:52:13.968Z,22.00
2018-06-23T13:54:54.156Z,21.60
2018-06-23T13:57:34.422Z,21.30
2018-06-23T14:00:07.053Z,21.10
2018-06-23T14:02:43.046Z,20.80
2018-06-23T14:05:23.279Z,20.60
2018-06-23T14:08:03.749Z,20.80
2018-06-23T14:10:40.951Z,20.90
2018-06-23T14:13:17.262Z,20.70
2018-06-23T14:15:50.101Z,20.90
2018-06-23T14:18:21.491Z,21.10
2018-06-23T14:21:02.643Z,21.20
2018-06-23T14:23:43.046Z,21.30
2018-06-23T14:26:23.406Z,21.20
2018-06-23T14:29:03.491Z,21.00
2018-06-23T14:31:43.941Z,21.20
2018-06-23T14:34:19.632Z,21.20
2018-06-23T14:36:59.687Z,21.10
2018-06-23T14:39:40.130Z,21.20
2018-06-23T14:42:20.419Z,21.30
2018-06-23T14:44:57.459Z,21.10
2018-06-23T14:47:33.160Z,20.80
2018-06-23T14:50:09.796Z,20.60
2018-06-23T14:52:50.097Z,20.40
2018-06-23T14:55:30.374Z,20.40
2018-06-23T14:58:12.545Z,20.60
2018-06-23T15:00:53.189Z,20.60
2018-06-23T15:03:25.540Z,20.50
2018-06-23T15:06:02.239Z,20.50
2018-06-23T15:08:44.084Z,20.50
2018-06-23T15:11:26.051Z,20.60
2018-06-23T15:14:06.619Z,20.60
2018-06-23T15:16:44.962Z,20.70
2018-06-23T15:19:24.993Z,20.70
2018-06-23T15:22:05.515Z,20.70
2018-06-23T15:24:46.231Z,20.60
2018-06-23T15:27:24.764Z,20.50
2018-06-23T15:29:56.724Z,20.50
2018-06-23T15:32:28.582Z,20.60
2018-06-23T15:35:09.336Z,20.50
2018-06-23T15:37:49.563Z,20.30
2018-06-23T15:40:34.658Z,20.20
2018-06-23T15:43:15.125Z,20.20
2018-06-23T15:45:55.776Z,20.20
2018-06-23T15:48:34.649Z,20.20
2018-06-23T15:51:12.343Z,20.10
2018-06-23T15:53:46.122Z,20.00
2018-06-23T15:56:25.018Z,20.00
2018-06-23T15:58:58.528Z,19.80
2018-06-23T16:01:37.021Z,19.80
2018-06-23T16:04:13.672Z,19.70
2018-06-23T16:06:53.845Z,19.70
2018-06-23T16:09:34.053Z,19.60
2018-06-23T16:12:14.977Z,19.50
2018-06-23T16:14:56.419Z,19.30
2018-06-23T16:17:37.193Z,19.20
2018-06-23T16:20:17.676Z,19.10
2018-06-23T16:22:58.138Z,19.00
2018-06-23T16:25:38.216Z,19.10
2018-06-23T16:28:18.347Z,19.10
2018-06-23T16:30:50.127Z,18.90
2018-06-23T16:33:23.476Z,18.80
2018-06-23T16:36:03.727Z,18.70
2018-06-23T16:38:44.334Z,18.50
2018-06-23T16:41:24.452Z,18.40
2018-06-23T16:44:04.839Z,18.20
2018-06-23T16:46:44.536Z,18.20
2018-06-23T16:49:24.188Z,18.10
2018-06-23T16:52:04.387Z,18.00
2018-06-23T16:54:45.533Z,17.90
2018-06-23T16:57:26.219Z,17.90
2018-06-23T17:00:06.718Z,17.80
2018-06-23T17:02:47.465Z,17.80
2018-06-23T17:05:26.019Z,17.70
2018-06-23T17:08:03.949Z,17.70
2018-06-23T17:10:41.379Z,17.70
2018-06-23T17:13:17.128Z,17.60
2018-06-23T17:15:53.837Z,17.60
2018-06-23T17:18:30.633Z,17.50
2018-06-23T17:21:10.589Z,17.50
2018-06-23T17:23:51.588Z,17.40
2018-06-23T17:26:31.850Z,17.40
2018-06-23T17:29:12.876Z,17.40
2018-06-23T17:31:53.604Z,17.40
2018-06-23T17:34:34.362Z,17.40
2018-06-23T17:37:08.487Z,17.30
2018-06-23T17:39:46.434Z,17.30
2018-06-23T17:42:26.455Z,17.30
2018-06-23T17:45:06.590Z,17.30
2018-06-23T17:47:46.093Z,17.20
2018-06-23T17:50:26.857Z,17.20
2018-06-23T17:53:04.161Z,17.20
2018-06-23T17:55:38.039Z,17.20
2018-06-23T17:58:15.044Z,17.20
2018-06-23T18:00:48.762Z,17.20
2018-06-23T18:03:22.862Z,17.30
2018-06-23T18:06:02.812Z,17.20
2018-06-23T18:08:43.028Z,17.10
2018-06-23T18:11:30.376Z,17.10
2018-06-23T18:14:16.871Z,17.10
2018-06-23T18:16:57.204Z,17.00
2018-06-23T18:19:37.328Z,17.00
2018-06-23T18:22:27.964Z,16.90
2018-06-23T18:25:12.125Z,16.90
2018-06-23T18:27:57.617Z,16.90
2018-06-23T18:30:36.749Z,16.90
2018-06-23T18:33:17.241Z,16.80
2018-06-23T18:35:51.500Z,16.80
2018-06-23T18:38:37.240Z,16.70
2018-06-23T18:41:29.133Z,16.70
2018-06-23T18:44:10.127Z,16.70
2018-06-23T18:46:54.925Z,16.60
2018-06-23T18:49:34.843Z,16.70
2018-06-23T18:52:14.804Z,16.60
2018-06-23T18:54:55.261Z,16.60
2018-06-23T18:57:34.866Z,16.60
2018-06-23T19:00:15.648Z,16.50
2018-06-23T19:02:54.710Z,16.50
2018-06-23T19:05:32.980Z,16.40
2018-06-23T19:08:11.864Z,16.40
2018-06-23T19:11:08.500Z,16.30
2018-06-23T19:13:53.336Z,16.30
2018-06-23T19:16:34.241Z,16.30
2018-06-23T19:19:17.915Z,16.20
2018-06-23T19:21:58.905Z,16.10
2018-06-23T19:24:39.674Z,16.00
2018-06-23T19:27:15.490Z,16.00
2018-06-23T19:29:57.741Z,15.90
2018-06-23T19:32:39.193Z,15.80
2018-06-23T19:35:19.448Z,15.70
2018-06-23T19:38:07.572Z,15.60
2018-06-23T19:40:48.598Z,15.60
2018-06-23T19:43:30.274Z,15.50
2018-06-23T19:46:10.731Z,15.40
2018-06-23T19:48:51.621Z,15.40
2018-06-23T19:51:33.552Z,15.30
2018-06-23T19:54:13.573Z,15.30
2018-06-23T19:56:53.669Z,15.30
2018-06-23T19:59:34.995Z,15.30
2018-06-23T20:02:15.239Z,15.30
2018-06-23T20:04:50.680Z,15.30
2018-06-23T20:07:31.293Z,15.30
2018-06-23T20:10:09.924Z,15.30
2018-06-23T20:12:48.574Z,15.30
2018-06-23T20:15:28.809Z,15.30
2018-06-23T20:18:09.127Z,15.20
2018-06-23T20:20:44.455Z,15.20
2018-06-23T20:23:23.615Z,15.30
2018-06-23T20:26:01.476Z,15.20
2018-06-23T20:28:41.956Z,15.20
2018-06-23T20:31:23.600Z,15.30
2018-06-23T20:34:04.227Z,15.20
2018-06-23T20:36:42.690Z,15.20
2018-06-23T20:39:19.769Z,15.20
2018-06-23T20:42:01.850Z,15.20
2018-06-23T20:44:41.790Z,15.10
2018-06-23T20:47:17.433Z,15.10
2018-06-23T20:49:54.880Z,15.10
2018-06-23T20:52:33.543Z,15.10
2018-06-23T20:55:11.920Z,15.10
2018-06-23T20:57:52.335Z,15.20
2018-06-23T21:00:32.285Z,15.10
2018-06-23T21:03:12.281Z,15.10
2018-06-23T21:05:49.846Z,15.10
2018-06-23T21:08:25.958Z,15.20
2018-06-23T21:11:03.685Z,15.20
2018-06-23T21:13:43.839Z,15.20
2018-06-23T21:16:15.147Z,15.20
2018-06-23T21:18:46.896Z,15.20
2018-06-23T21:21:27.248Z,15.10
2018-06-23T21:24:07.385Z,15.10
2018-06-23T21:26:47.564Z,15.20
2018-06-23T21:29:28.017Z,15.10
2018-06-23T21:32:08.434Z,15.10
2018-06-23T21:34:48.743Z,15.10
2018-06-23T21:37:29.213Z,15.00
2018-06-23T21:40:09.590Z,15.00
2018-06-23T21:42:47.381Z,15.00
2018-06-23T21:45:24.069Z,15.00
2018-06-23T21:47:58.169Z,15.00
2018-06-23T21:50:34.400Z,15.00
2018-06-23T21:53:10.561Z,15.00
2018-06-23T21:55:46.521Z,14.90
2018-06-23T21:58:21.676Z,14.80
2018-06-23T22:00:58.849Z,14.80
2018-06-23T22:06:18.344Z,14.70
2018-06-23T22:08:51.283Z,14.60
2018-06-23T22:11:31.348Z,14.60
2018-06-23T22:14:11.547Z,14.60
2018-06-23T22:16:49.983Z,14.60
2018-06-23T22:19:21.973Z,14.60
2018-06-23T22:21:54.131Z,14.60
2018-06-23T22:24:33.994Z,14.60
2018-06-23T22:27:13.917Z,14.60
2018-06-23T22:29:54.019Z,14.60
2018-06-23T22:32:31.257Z,14.50
2018-06-23T22:35:11.568Z,14.40
2018-06-23T22:37:52.520Z,14.30
2018-06-23T22:40:32.480Z,14.20
2018-06-23T22:43:08.415Z,14.20
2018-06-23T22:45:46.187Z,14.10
2018-06-23T22:48:24.278Z,14.10
2018-06-23T22:51:04.204Z,14.00
2018-06-23T22:53:42.476Z,14.00
2018-06-23T22:56:22.589Z,13.90
2018-06-23T22:58:59.593Z,13.90
2018-06-23T23:01:39.796Z,13.80
2018-06-23T23:04:12.427Z,13.70
2018-06-23T23:06:52.648Z,13.70
2018-06-23T23:09:32.899Z,13.60
2018-06-23T23:12:09.967Z,13.50
2018-06-23T23:14:49.836Z,13.50
2018-06-23T23:17:30.375Z,13.50
2018-06-23T23:20:06.447Z,13.40
2018-06-23T23:22:42.533Z,13.40
2018-06-23T23:25:17.763Z,13.40
2018-06-23T23:27:54.318Z,13.40
2018-06-23T23:30:30.188Z,13.30
2018-06-23T23:33:10.068Z,13.30
2018-06-23T23:35:48.234Z,13.30
2018-06-23T23:38:25.788Z,13.40
2018-06-23T23:41:05.898Z,13.40
2018-06-23T23:43:45.860Z,13.40
2018-06-23T23:46:25.987Z,13.50
2018-06-23T23:49:05.852Z,13.40
2018-06-23T23:51:44.895Z,13.50
2018-06-23T23:54:25.570Z,13.50
2018-06-23T23:57:03.093Z,13.50
2018-06-23T23:59:36.315Z,13.50
